»·PEaware :: N959GT KOXR-KSNA

N959GT :: KOXR-KSNA

FLIGHT INFORMATION

Flight Status: Arrived
Operator: Privately registered:
United States
More flights under this callsign
Pilot: Julio S. (28535)
Aircraft: CESSNA 152 AEROBAT
(C152)
More flights by this aircraft type
Origin: KOXR Oxnard
United States
Destination: KSNA John Wayne-Orange Co
United States
More flights between these airports :: More routes between these airports
Route: VTU SXC
File this flight plan on PilotEdge
Remarks:
Altitude:
(Current/Filed)
3,500ft
Speed:
(Current/Filed)
95kts
Departed: 21-Jun-21 03:21 PM
Arrived: 21-Jun-21 04:29 PM
Distance/Time
Traveled:
74nm/1:07
Distance/Time
To Go:
Arrived

Flight Plot

Page will automatically refresh every two minutes.

Flight plan parsing failed; only flown route is shown


Map Options




Map Legend


Flown Route
Filed Route
Departure Airport
Arrival Airport
Navaid (VOR, NDB)
Fix

Horizontal Profiles

Position Reports

Time Latitude Longitude Heading Altitude Ground
Speed
21-Jun-21 15:06 34.198732 -119.202074 359 40ft 0kts
21-Jun-21 15:07 34.198732 -119.202074 359 40ft 0kts
21-Jun-21 15:08 34.198732 -119.202074 359 40ft 0kts
21-Jun-21 15:09 34.198732 -119.202074 359 40ft 0kts
21-Jun-21 15:10 34.198732 -119.202074 359 40ft 0kts
21-Jun-21 15:11 34.198735 -119.202074 359 40ft 0kts
21-Jun-21 15:12 34.198735 -119.202074 359 40ft 0kts
21-Jun-21 15:13 34.198994 -119.202069 2 40ft 8kts
21-Jun-21 15:14 34.199209 -119.202058 358 40ft 0kts
21-Jun-21 15:15 34.199209 -119.202058 358 40ft 0kts
21-Jun-21 15:16 34.199224 -119.202059 355 40ft 1kts
21-Jun-21 15:17 34.199755 -119.201178 89 41ft 10kts
21-Jun-21 15:18 34.199735 -119.198016 80 43ft 17kts
21-Jun-21 15:19 34.199900 -119.197628 27 43ft 0kts
21-Jun-21 15:20 34.200455 -119.197546 351 43ft 13kts
21-Jun-21 15:21 34.200880 -119.207033 270 182ft 71kts
21-Jun-21 15:22 34.194676 -119.218646 173 835ft 81kts
21-Jun-21 15:22 34.186887 -119.202988 121 1063ft 106kts
21-Jun-21 15:24 34.175221 -119.177848 122 1204ft 109kts
21-Jun-21 15:25 34.173223 -119.154569 52 1297ft 108kts
21-Jun-21 15:25 34.180921 -119.136331 80 1362ft 109kts
21-Jun-21 15:26 34.180555 -119.108070 95 1252ft 112kts
21-Jun-21 15:27 34.178157 -119.083028 106 1457ft 94kts
21-Jun-21 15:29 34.164356 -119.068135 190 2149ft 80kts
21-Jun-21 15:29 34.151207 -119.068986 183 2708ft 75kts
21-Jun-21 15:30 34.136303 -119.062812 169 3265ft 79kts
21-Jun-21 15:31 34.119883 -119.053902 147 3598ft 101kts
21-Jun-21 15:33 34.099179 -119.035321 153 3601ft 97kts
21-Jun-21 15:33 34.083697 -119.022705 155 3584ft 99kts
21-Jun-21 15:34 34.063928 -119.008269 156 3487ft 98kts
21-Jun-21 15:35 34.044579 -118.992446 153 3409ft 99kts
21-Jun-21 15:36 34.026220 -118.976039 152 3520ft 93kts
21-Jun-21 15:37 34.006644 -118.959927 155 3559ft 99kts
21-Jun-21 15:38 33.985829 -118.943443 155 3568ft 101kts
21-Jun-21 15:39 33.965201 -118.926283 146 3528ft 107kts
21-Jun-21 15:40 33.942351 -118.909970 152 3546ft 103kts
21-Jun-21 15:41 33.921677 -118.888266 149 3492ft 108kts
21-Jun-21 15:42 33.899617 -118.869126 152 3470ft 102kts
21-Jun-21 15:43 33.878217 -118.851756 155 3472ft 95kts
21-Jun-21 15:44 33.857142 -118.834491 154 3552ft 99kts
21-Jun-21 15:45 33.834496 -118.817085 159 3551ft 101kts
21-Jun-21 15:46 33.810871 -118.801259 175 3508ft 97kts
21-Jun-21 15:47 33.790080 -118.785800 153 3516ft 104kts
21-Jun-21 15:48 33.772982 -118.770046 150 3528ft 104kts
21-Jun-21 15:49 33.756156 -118.754212 152 3508ft 105kts
21-Jun-21 15:50 33.736042 -118.738769 161 3505ft 102kts
21-Jun-21 15:51 33.723876 -118.715419 120 3484ft 114kts
21-Jun-21 15:52 33.715835 -118.691139 119 3499ft 113kts
21-Jun-21 15:53 33.709062 -118.659701 110 3483ft 116kts
21-Jun-21 15:54 33.704838 -118.625176 98 3477ft 118kts
21-Jun-21 15:55 33.702169 -118.590623 97 3474ft 118kts
21-Jun-21 15:56 33.697577 -118.556543 105 3469ft 117kts
21-Jun-21 15:57 33.689692 -118.523761 116 3466ft 116kts
21-Jun-21 15:58 33.679360 -118.492923 117 3467ft 116kts
21-Jun-21 15:59 33.670350 -118.461943 115 3467ft 116kts
21-Jun-21 16:00 33.659113 -118.431170 122 3531ft 113kts
21-Jun-21 16:01 33.648705 -118.401851 113 3569ft 115kts
21-Jun-21 16:02 33.643046 -118.370748 84 3589ft 120kts
21-Jun-21 16:03 33.646776 -118.339425 86 3628ft 119kts
21-Jun-21 16:04 33.649200 -118.308078 86 3647ft 119kts
21-Jun-21 16:05 33.651097 -118.281137 90 3535ft 125kts
21-Jun-21 16:06 33.651189 -118.252320 92 3375ft 123kts
21-Jun-21 16:07 33.652257 -118.227074 93 3484ft 119kts
21-Jun-21 16:08 33.651965 -118.202212 96 3621ft 119kts
21-Jun-21 16:09 33.652893 -118.177413 87 3423ft 117kts
21-Jun-21 16:10 33.655443 -118.152917 90 3076ft 115kts
21-Jun-21 16:11 33.658054 -118.129292 90 2730ft 113kts
21-Jun-21 16:12 33.659157 -118.106437 93 2388ft 111kts
21-Jun-21 16:13 33.659436 -118.083129 99 2171ft 108kts
21-Jun-21 16:14 33.659176 -118.060403 97 2011ft 104kts
21-Jun-21 16:15 33.657865 -118.038911 104 1984ft 102kts
21-Jun-21 16:16 33.658052 -118.018702 84 1996ft 105kts
21-Jun-21 16:17 33.660410 -118.000524 89 1988ft 108kts
21-Jun-21 16:18 33.661585 -117.982081 94 1744ft 104kts
21-Jun-21 16:19 33.663262 -117.963312 86 1419ft 103kts
21-Jun-21 16:20 33.665029 -117.945450 87 1061ft 103kts
21-Jun-21 16:21 33.666608 -117.929535 88 1028ft 90kts
21-Jun-21 16:22 33.667888 -117.914844 89 1034ft 89kts
21-Jun-21 16:23 33.668888 -117.899956 91 1034ft 90kts
21-Jun-21 16:24 33.670469 -117.884801 69 991ft 95kts
21-Jun-21 16:25 33.679257 -117.875278 32 917ft 85kts
21-Jun-21 16:26 33.688249 -117.868231 29 794ft 76kts
21-Jun-21 16:27 33.686888 -117.861332 222 412ft 67kts
21-Jun-21 16:28 33.679437 -117.866456 209 60ft 39kts
21-Jun-21 16:29 33.678072 -117.868638 260 60ft 0kts
21-Jun-21 16:30 33.677188 -117.869363 209 60ft 19kts
21-Jun-21 16:31 33.676015 -117.870992 218 60ft 0kts

Navigation Log

Ident Type
Flight plan parsing failed, navigation log unavailable